Time;durP1;ratioP1;P1;durP2;ratioP2;P2;SDS_P1;SDS_P2;PMS_P1;PMS_P2;Temp;Humidity;BMP_temperature;BMP_pressure;BME280_temperature;BME280_humidity;BME280_pressure;Samples;Min_cycle;Max_cycle;Signal;HPM_P1;HPM_P2
2021/12/08 00:00:47;;;;;;;13.88;9.25;;;7.50;64.40;;;;;;4983364;28;20493;-82
2021/12/08 00:03:15;;;;;;;13.85;9.88;;;7.50;64.20;;;;;;4980452;28;20169;-84
2021/12/08 00:05:44;;;;;;;15.00;9.65;;;7.50;64.20;;;;;;4968456;28;20170;-84
2021/12/08 00:08:12;;;;;;;14.82;9.95;;;7.50;64.20;;;;;;4966149;28;20057;-84
2021/12/08 00:13:35;;;;;;;11.40;8.80;;;7.40;64.00;;;;;;4926370;29;20424;-82
2021/12/08 00:16:08;;;;;;;13.55;9.63;;;7.40;64.00;;;;;;4926715;29;20039;-83
2021/12/08 00:18:34;;;;;;;13.18;9.63;;;7.40;63.80;;;;;;4945860;28;20039;-84
2021/12/08 00:21:06;;;;;;;13.18;9.75;;;7.40;63.80;;;;;;4984739;28;20034;-82
2021/12/08 00:23:32;;;;;;;12.20;8.93;;;7.50;63.80;;;;;;4980318;28;20039;-81
2021/12/08 00:25:58;;;;;;;12.80;9.50;;;7.40;63.60;;;;;;4984340;28;20555;-84
2021/12/08 00:28:25;;;;;;;12.23;9.25;;;7.40;63.60;;;;;;4985355;28;20125;-83
2021/12/08 00:30:55;;;;;;;14.35;9.88;;;7.40;63.60;;;;;;4985967;28;20042;-83
2021/12/08 00:33:21;;;;;;;13.95;9.63;;;7.40;63.50;;;;;;4983281;28;20045;-83
2021/12/08 00:35:50;;;;;;;13.82;9.57;;;7.40;63.40;;;;;;4985086;28;20137;-82
2021/12/08 00:38:17;;;;;;;13.02;9.57;;;7.40;63.20;;;;;;4983261;28;20066;-83
2021/12/08 00:40:44;;;;;;;12.82;9.25;;;7.40;63.10;;;;;;4984442;28;20444;-83
2021/12/08 00:43:11;;;;;;;13.77;9.23;;;7.50;63.00;;;;;;4968502;28;20030;-83
2021/12/08 00:45:37;;;;;;;12.13;8.82;;;7.50;62.90;;;;;;4985566;28;20038;-82
2021/12/08 00:48:03;;;;;;;12.32;9.95;;;7.40;62.90;;;;;;4986666;28;20101;-83
2021/12/08 00:50:33;;;;;;;12.27;9.18;;;7.40;62.80;;;;;;4967249;28;20037;-85
2021/12/08 00:53:00;;;;;;;12.45;8.82;;;7.40;62.80;;;;;;4984022;28;20042;-84
2021/12/08 00:55:26;;;;;;;12.43;8.70;;;7.50;63.00;;;;;;4985938;28;20040;-86
2021/12/08 00:57:53;;;;;;;13.07;8.85;;;7.50;62.50;;;;;;4983936;28;20031;-82
2021/12/08 01:00:24;;;;;;;13.55;9.48;;;7.50;62.30;;;;;;4984842;28;20030;-83
2021/12/08 01:02:50;;;;;;;12.00;9.00;;;7.50;62.20;;;;;;4985760;28;20030;-83
2021/12/08 01:05:19;;;;;;;12.50;9.45;;;7.50;62.10;;;;;;4984815;28;20046;-83
2021/12/08 01:07:46;;;;;;;11.00;8.73;;;7.40;62.10;;;;;;4983829;28;20094;-83
2021/12/08 01:10:17;;;;;;;14.20;9.65;;;7.40;62.20;;;;;;4983885;28;20026;-86
2021/12/08 01:12:43;;;;;;;13.90;9.52;;;7.40;62.30;;;;;;4968445;28;20022;-83
2021/12/08 01:15:10;;;;;;;11.15;8.23;;;7.30;62.30;;;;;;4982843;28;20045;-81
2021/12/08 01:17:37;;;;;;;12.38;8.80;;;7.30;62.30;;;;;;4985537;28;20111;-85
2021/12/08 01:20:06;;;;;;;11.70;8.70;;;7.30;62.30;;;;;;4985097;28;20046;-86
2021/12/08 01:22:33;;;;;;;13.13;9.00;;;7.30;62.30;;;;;;4983838;28;20079;-84
2021/12/08 01:24:59;;;;;;;12.55;9.00;;;7.30;62.10;;;;;;4971616;28;20034;-85
2021/12/08 01:27:25;;;;;;;13.48;9.20;;;7.30;62.10;;;;;;4985073;28;20637;-82
2021/12/08 01:29:51;;;;;;;13.00;8.88;;;7.30;61.90;;;;;;4966143;28;20085;-82
2021/12/08 01:32:19;;;;;;;12.60;9.23;;;7.30;61.90;;;;;;4986313;28;20516;-82
2021/12/08 01:34:45;;;;;;;13.63;8.73;;;7.30;61.70;;;;;;4984661;28;20073;-81
2021/12/08 01:37:11;;;;;;;12.05;8.95;;;7.30;61.50;;;;;;4982022;28;20030;-84
2021/12/08 01:39:37;;;;;;;12.93;8.88;;;7.20;61.50;;;;;;4983781;28;20566;-86
2021/12/08 01:42:05;;;;;;;12.57;8.85;;;7.30;61.50;;;;;;4985486;28;20128;-83
2021/12/08 01:47:29;;;;;;;14.30;10.05;;;7.20;61.40;;;;;;4962222;28;20292;-83
2021/12/08 01:50:01;;;;;;;13.93;8.68;;;7.20;61.30;;;;;;4962041;28;20125;-84
2021/12/08 01:52:27;;;;;;;12.70;9.52;;;7.20;61.20;;;;;;4980019;28;20062;-84
2021/12/08 01:54:54;;;;;;;13.40;9.50;;;7.20;61.00;;;;;;4982700;28;20367;-84
2021/12/08 01:57:20;;;;;;;14.30;10.02;;;7.20;60.80;;;;;;4984921;28;20030;-83
2021/12/08 01:59:46;;;;;;;12.82;9.27;;;7.30;60.70;;;;;;4983269;28;20406;-84
2021/12/08 02:02:13;;;;;;;14.10;9.48;;;7.30;60.60;;;;;;4983583;28;20041;-84
2021/12/08 02:04:42;;;;;;;15.88;10.75;;;7.30;60.60;;;;;;4984042;28;20077;-86
2021/12/08 02:07:09;;;;;;;16.55;10.77;;;7.20;60.60;;;;;;4981758;28;20471;-84
2021/12/08 02:09:35;;;;;;;13.10;9.45;;;7.20;60.60;;;;;;4982650;28;20041;-86
2021/12/08 02:12:01;;;;;;;15.43;10.18;;;7.20;60.60;;;;;;4984234;28;20132;-85
2021/12/08 02:14:27;;;;;;;16.25;10.68;;;7.20;60.40;;;;;;4982078;28;20125;-85
2021/12/08 02:16:55;;;;;;;14.13;9.95;;;7.20;60.40;;;;;;4982996;28;20579;-85
2021/12/08 02:19:22;;;;;;;16.05;11.30;;;7.20;60.40;;;;;;4984802;28;20034;-84
2021/12/08 02:21:52;;;;;;;15.85;10.30;;;7.20;60.20;;;;;;4983480;28;20045;-83
2021/12/08 02:24:20;;;;;;;16.73;11.02;;;7.20;60.00;;;;;;4982784;28;20129;-84
2021/12/08 02:26:50;;;;;;;16.45;11.15;;;7.20;59.90;;;;;;4982513;28;20035;-84
2021/12/08 02:29:24;;;;;;;15.13;10.52;;;7.20;59.90;;;;;;4982406;28;20042;-85
2021/12/08 02:32:00;;;;;;;16.58;10.65;;;7.10;59.80;;;;;;4966057;28;20050;-89
2021/12/08 02:48:17;;;;;;;15.20;10.55;;;7.10;59.60;;;;;;4981858;28;20072;-84
2021/12/08 02:50:44;;;;;;;17.67;11.05;;;7.00;59.60;;;;;;4980083;28;20046;-84
2021/12/08 02:53:12;;;;;;;18.08;12.10;;;7.00;59.60;;;;;;4981657;28;20477;-84
2021/12/08 02:55:42;;;;;;;18.02;11.68;;;7.10;59.70;;;;;;4984535;28;20114;-84
2021/12/08 02:58:08;;;;;;;16.52;11.63;;;7.00;59.60;;;;;;4983167;28;20039;-84
2021/12/08 03:00:39;;;;;;;16.20;11.07;;;7.00;59.70;;;;;;4983205;28;20046;-84
2021/12/08 03:03:06;;;;;;;19.02;11.43;;;7.00;59.80;;;;;;4982987;28;20046;-84
2021/12/08 03:05:35;;;;;;;18.67;11.82;;;7.00;59.80;;;;;;4981821;28;20117;-85
2021/12/08 03:08:03;;;;;;;17.48;12.30;;;7.00;59.80;;;;;;4981806;28;20034;-86
2021/12/08 03:10:33;;;;;;;18.67;11.90;;;6.90;59.80;;;;;;4981016;28;20472;-84
2021/12/08 03:12:59;;;;;;;19.30;12.48;;;6.90;59.80;;;;;;4982848;28;20034;-86
2021/12/08 03:15:25;;;;;;;19.63;11.77;;;6.90;59.80;;;;;;4965271;28;20156;-84
2021/12/08 03:17:51;;;;;;;20.35;13.10;;;6.90;59.70;;;;;;4982451;28;20112;-82
2021/12/08 03:20:22;;;;;;;18.92;12.93;;;6.90;59.60;;;;;;4982287;28;20031;-84
2021/12/08 03:22:50;;;;;;;19.83;13.48;;;6.90;59.50;;;;;;4981773;28;20121;-82
2021/12/08 03:25:20;;;;;;;19.83;12.80;;;6.90;59.30;;;;;;4983726;28;20038;-83
2021/12/08 03:28:02;;;;;;;17.95;12.10;;;6.90;59.10;;;;;;4983459;28;20035;-81
2021/12/08 03:30:34;;;;;;;19.23;11.82;;;6.90;59.00;;;;;;4981235;28;20027;-82
2021/12/08 03:33:01;;;;;;;19.40;12.60;;;6.90;58.90;;;;;;4981884;28;20127;-83
2021/12/08 03:35:27;;;;;;;20.85;13.00;;;6.90;58.90;;;;;;4980861;28;20029;-83
2021/12/08 03:37:53;;;;;;;19.52;12.60;;;6.90;59.40;;;;;;4981225;28;20459;-82
2021/12/08 03:40:25;;;;;;;20.42;12.93;;;6.80;58.80;;;;;;4979886;28;20035;-90
2021/12/08 03:42:54;;;;;;;21.20;13.05;;;6.80;58.80;;;;;;4981681;28;20038;-88
2021/12/08 03:45:25;;;;;;;19.92;13.48;;;6.80;58.70;;;;;;4965655;28;20049;-84
2021/12/08 03:48:00;;;;;;;20.95;13.27;;;6.80;58.70;;;;;;4983632;28;20044;-84
2021/12/08 03:50:26;;;;;;;21.08;13.15;;;6.80;58.70;;;;;;4983643;28;20089;-83
2021/12/08 03:52:52;;;;;;;19.65;12.57;;;6.80;58.70;;;;;;4981861;28;20129;-83
2021/12/08 03:55:18;;;;;;;20.10;12.95;;;6.80;58.70;;;;;;4981225;28;20184;-84
2021/12/08 03:57:44;;;;;;;22.35;13.48;;;6.70;58.80;;;;;;4981078;28;20030;-83
2021/12/08 04:00:16;;;;;;;21.08;13.55;;;6.70;58.90;;;;;;4965330;28;20030;-83
2021/12/08 04:02:42;;;;;;;20.27;13.10;;;6.70;58.90;;;;;;4986181;28;20058;-83
2021/12/08 04:05:09;;;;;;;21.75;13.10;;;6.70;58.80;;;;;;4986538;28;20042;-84
2021/12/08 04:07:42;;;;;;;21.73;13.57;;;6.70;58.90;;;;;;4985969;28;20525;-83
2021/12/08 04:10:16;;;;;;;21.42;13.38;;;6.70;58.90;;;;;;4983418;28;20547;-85
2021/12/08 04:12:42;;;;;;;21.73;12.90;;;6.70;58.80;;;;;;4985290;28;20036;-85
2021/12/08 04:15:08;;;;;;;20.17;12.20;;;6.70;58.80;;;;;;4984055;28;20478;-88
2021/12/08 04:17:42;;;;;;;24.17;14.35;;;6.60;58.80;;;;;;4986586;28;20049;-87
2021/12/08 04:20:17;;;;;;;19.50;12.43;;;6.60;58.70;;;;;;4985168;28;20030;-88
2021/12/08 04:22:47;;;;;;;20.23;12.90;;;6.60;58.80;;;;;;4985741;28;20030;-88
2021/12/08 04:25:22;;;;;;;21.60;13.40;;;6.60;58.60;;;;;;4986622;28;20045;-86
2021/12/08 04:27:51;;;;;;;22.83;14.52;;;6.60;58.50;;;;;;4986144;28;20030;-84
2021/12/08 04:30:37;;;;;;;21.92;13.70;;;6.60;58.50;;;;;;4984546;28;20043;-86
2021/12/08 04:33:04;;;;;;;21.17;13.15;;;6.60;58.30;;;;;;4986433;28;20026;-84
2021/12/08 04:35:30;;;;;;;21.52;13.38;;;6.60;58.30;;;;;;4967791;28;20038;-84
2021/12/08 04:38:03;;;;;;;22.13;14.07;;;6.60;58.20;;;;;;4984597;28;20027;-85
2021/12/08 04:40:42;;;;;;;21.60;13.27;;;6.60;58.70;;;;;;4985918;28;20490;-81
2021/12/08 05:10:14;;;;;;;19.42;12.13;;;6.40;57.70;;;;;;4986349;28;20052;-85
2021/12/08 05:12:40;;;;;;;19.20;11.93;;;6.40;57.70;;;;;;4981777;28;20041;-89
2021/12/08 05:15:22;;;;;;;20.95;12.13;;;6.40;57.70;;;;;;4986147;28;20031;-87
2021/12/08 05:18:03;;;;;;;22.17;12.23;;;6.40;57.80;;;;;;4983996;28;20043;-87
2021/12/08 05:20:42;;;;;;;21.33;12.00;;;6.40;57.70;;;;;;4985348;28;20100;-87
2021/12/08 05:23:15;;;;;;;21.50;12.73;;;6.40;57.70;;;;;;4967835;28;20041;-87
2021/12/08 05:25:45;;;;;;;22.50;13.07;;;6.40;57.50;;;;;;4983392;28;20030;-88
2021/12/08 05:28:14;;;;;;;21.83;12.23;;;6.40;57.50;;;;;;4968833;28;20038;-88
2021/12/08 05:30:47;;;;;;;19.48;12.10;;;6.30;57.50;;;;;;4967412;28;20050;-89
2021/12/08 05:33:14;;;;;;;21.02;12.65;;;6.30;57.50;;;;;;4985965;28;20061;-89
2021/12/08 05:35:41;;;;;;;20.65;12.13;;;6.30;57.50;;;;;;4986846;28;20027;-89
2021/12/08 05:38:08;;;;;;;20.67;12.82;;;6.30;57.40;;;;;;4983950;28;20037;-87
2021/12/08 05:40:42;;;;;;;21.85;12.48;;;6.30;57.40;;;;;;4987465;28;20034;-87
2021/12/08 05:43:10;;;;;;;19.52;11.68;;;6.30;57.30;;;;;;4970649;28;20034;-89
2021/12/08 05:45:37;;;;;;;20.45;11.95;;;6.30;57.30;;;;;;4977452;28;20034;-89
2021/12/08 05:48:04;;;;;;;21.20;13.05;;;6.30;57.30;;;;;;4974362;28;20062;-87
2021/12/08 05:50:45;;;;;;;20.48;12.05;;;6.30;57.30;;;;;;4985552;28;20031;-88
2021/12/08 05:53:11;;;;;;;20.77;12.60;;;6.20;57.30;;;;;;4985578;28;20078;-88
2021/12/08 05:55:38;;;;;;;22.88;12.80;;;6.20;57.10;;;;;;4988361;28;20026;-90
2021/12/08 05:58:07;;;;;;;22.52;12.38;;;6.20;57.10;;;;;;4984986;28;20100;-90
2021/12/08 06:00:50;;;;;;;21.63;11.93;;;6.20;57.00;;;;;;4982064;28;20035;-84
2021/12/08 06:03:17;;;;;;;23.73;12.55;;;6.20;57.80;;;;;;4982526;28;20069;-85
2021/12/08 06:05:46;;;;;;;23.80;13.15;;;6.10;57.80;;;;;;4986793;28;20031;-84
2021/12/08 06:08:13;;;;;;;23.20;13.43;;;6.10;57.70;;;;;;4970556;28;20126;-84
2021/12/08 06:10:40;;;;;;;21.67;12.98;;;6.00;57.40;;;;;;4987242;28;20046;-83
2021/12/08 06:13:08;;;;;;;22.52;12.00;;;5.90;57.70;;;;;;4972199;28;20053;-84
2021/12/08 06:15:35;;;;;;;24.02;12.73;;;5.80;57.10;;;;;;4984781;28;20385;-83
2021/12/08 06:18:01;;;;;;;20.98;12.45;;;5.60;56.80;;;;;;4967892;28;20081;-84
2021/12/08 06:20:27;;;;;;;23.38;13.32;;;5.40;57.70;;;;;;4983887;28;20036;-83
2021/12/08 06:22:57;;;;;;;25.55;13.05;;;5.40;58.20;;;;;;4975084;28;20037;-88
2021/12/08 06:25:26;;;;;;;23.10;12.65;;;5.30;58.80;;;;;;4986524;28;20122;-87
2021/12/08 06:27:52;;;;;;;21.45;12.38;;;5.20;60.40;;;;;;4983510;28;20027;-85
2021/12/08 06:30:23;;;;;;;22.98;12.32;;;5.30;61.20;;;;;;4981941;28;20034;-85
2021/12/08 06:32:50;;;;;;;21.02;11.48;;;5.30;61.30;;;;;;4984159;28;20038;-90
2021/12/08 06:35:22;;;;;;;20.70;11.60;;;5.40;61.40;;;;;;4984363;28;20424;-85
2021/12/08 06:37:49;;;;;;;24.60;13.15;;;5.50;61.50;;;;;;4968203;28;20445;-84
2021/12/08 06:40:20;;;;;;;22.70;13.25;;;5.50;61.00;;;;;;4991451;28;20133;-88
2021/12/08 06:42:54;;;;;;;21.60;12.30;;;5.70;60.30;;;;;;5000438;28;20033;-86
2021/12/08 06:45:28;;;;;;;23.15;13.18;;;5.70;59.70;;;;;;5010284;28;20038;-86
2021/12/08 06:47:55;;;;;;;26.75;12.90;;;5.80;58.90;;;;;;5008691;28;20408;-87
2021/12/08 06:50:29;;;;;;;22.77;12.20;;;5.90;58.50;;;;;;5008946;28;20101;-87
2021/12/08 06:52:56;;;;;;;22.83;12.95;;;5.90;58.20;;;;;;4993744;28;20015;-87
2021/12/08 06:55:28;;;;;;;23.27;13.10;;;5.90;57.90;;;;;;4968332;28;20031;-86
2021/12/08 06:57:59;;;;;;;22.17;12.15;;;5.90;57.60;;;;;;5003843;28;20027;-86
2021/12/08 07:00:53;;;;;;;22.27;12.75;;;5.90;57.40;;;;;;4991217;28;20386;-87
2021/12/08 07:08:24;;;;;;;20.35;11.10;;;5.90;57.10;;;;;;5002642;28;20030;-86
2021/12/08 07:10:56;;;;;;;22.20;11.07;;;5.90;57.10;;;;;;4977458;28;20038;-84
2021/12/08 07:13:25;;;;;;;21.75;11.35;;;5.90;57.00;;;;;;4974391;28;20035;-83
2021/12/08 07:16:00;;;;;;;20.73;10.57;;;5.90;57.50;;;;;;4994253;28;20486;-81
2021/12/08 07:19:00;;;;;;;23.98;11.45;;;5.90;58.80;;;;;;4991602;28;20034;-83
2021/12/08 07:21:33;;;;;;;19.08;11.13;;;6.00;58.40;;;;;;4981397;28;20043;-81
2021/12/08 07:24:27;;;;;;;19.10;10.82;;;6.00;57.90;;;;;;4982397;28;20023;-81
2021/12/08 07:27:00;;;;;;;19.30;10.63;;;6.00;57.50;;;;;;4981313;28;20049;-82
2021/12/08 07:29:29;;;;;;;18.25;9.90;;;6.00;58.10;;;;;;4981219;28;20042;-80
2021/12/08 07:32:00;;;;;;;17.20;9.55;;;6.00;59.60;;;;;;4983169;28;20092;-81
2021/12/08 07:34:28;;;;;;;16.23;9.10;;;6.10;60.40;;;;;;4982778;28;20038;-82
2021/12/08 07:36:59;;;;;;;14.27;8.05;;;6.20;61.40;;;;;;4982482;28;20041;-80
2021/12/08 07:39:32;;;;;;;14.75;8.63;;;6.20;61.90;;;;;;4981412;28;20072;-81
2021/12/08 07:42:07;;;;;;;18.35;9.95;;;6.30;62.40;;;;;;4987800;28;20069;-81
2021/12/08 07:44:33;;;;;;;15.35;9.00;;;6.30;62.90;;;;;;4968692;28;20042;-81
2021/12/08 07:47:12;;;;;;;15.35;9.38;;;6.30;61.90;;;;;;4987583;28;20038;-82
2021/12/08 07:49:48;;;;;;;15.73;8.82;;;6.30;60.80;;;;;;4987489;28;20084;-79
2021/12/08 07:52:22;;;;;;;17.20;9.43;;;6.30;59.90;;;;;;4985039;28;20516;-82
2021/12/08 07:54:49;;;;;;;16.70;9.52;;;6.30;59.20;;;;;;4985499;28;20490;-80
2021/12/08 07:57:25;;;;;;;18.45;10.90;;;6.20;58.70;;;;;;4982238;28;20027;-78
2021/12/08 07:59:54;;;;;;;;;;;6.20;58.30;;;;;;4984140;28;20038;-80
2021/12/08 08:02:25;;;;;;;19.83;10.52;;;6.20;58.00;;;;;;4983758;28;19914;-81
2021/12/08 08:04:53;;;;;;;18.80;10.32;;;6.20;57.60;;;;;;4984486;28;20035;-82
2021/12/08 08:07:21;;;;;;;24.60;13.55;;;6.20;57.40;;;;;;4980876;28;20559;-81
2021/12/08 08:09:57;;;;;;;21.30;12.43;;;6.10;57.20;;;;;;4982213;28;20027;-80
2021/12/08 08:12:24;;;;;;;22.75;12.75;;;6.10;57.10;;;;;;4982105;28;20678;-80
2021/12/08 08:14:56;;;;;;;25.20;13.68;;;6.10;57.20;;;;;;4983805;28;20030;-85
2021/12/08 08:17:33;;;;;;;24.38;12.93;;;6.10;57.10;;;;;;4979972;28;20092;-80
2021/12/08 08:20:01;;;;;;;22.20;12.38;;;6.10;57.10;;;;;;4981083;28;20026;-83
2021/12/08 08:22:29;;;;;;;21.80;12.65;;;6.10;56.90;;;;;;4981516;28;20069;-82
2021/12/08 08:24:58;;;;;;;20.58;11.40;;;6.10;56.80;;;;;;4975283;28;20444;-81
2021/12/08 08:27:25;;;;;;;22.80;11.15;;;6.00;56.80;;;;;;4982877;28;20026;-83
2021/12/08 08:29:54;;;;;;;22.13;11.65;;;6.00;56.70;;;;;;4982548;28;20498;-81
2021/12/08 08:32:26;;;;;;;23.42;12.00;;;6.00;56.70;;;;;;4982000;28;20056;-81
2021/12/08 08:35:04;;;;;;;19.50;10.75;;;6.00;56.70;;;;;;4982986;28;20026;-84
2021/12/08 08:37:30;;;;;;;21.63;11.43;;;6.00;56.50;;;;;;4982451;28;20035;-83
2021/12/08 08:40:03;;;;;;;20.92;11.10;;;6.00;56.50;;;;;;4967559;28;20034;-82
2021/12/08 08:42:33;;;;;;;20.35;11.18;;;6.00;56.40;;;;;;4963772;28;20082;-82
2021/12/08 08:45:09;;;;;;;22.00;11.60;;;5.90;56.50;;;;;;4979739;28;20049;-82
2021/12/08 08:47:47;;;;;;;18.95;9.63;;;6.00;56.50;;;;;;4985216;28;20080;-80
2021/12/08 08:50:25;;;;;;;22.27;11.73;;;5.90;56.50;;;;;;4986795;28;20509;-80
2021/12/08 08:52:54;;;;;;;21.55;11.25;;;5.90;56.60;;;;;;4985844;28;20042;-81
2021/12/08 08:55:28;;;;;;;21.13;10.95;;;5.90;56.50;;;;;;4985214;28;20035;-80
2021/12/08 08:57:55;;;;;;;22.20;11.38;;;5.90;56.40;;;;;;4985960;28;20089;-83
2021/12/08 09:00:31;;;;;;;19.30;10.25;;;5.90;56.60;;;;;;4982253;28;20057;-84
2021/12/08 09:03:04;;;;;;;23.00;11.60;;;5.80;56.50;;;;;;4985791;28;20121;-83
2021/12/08 09:05:43;;;;;;;20.30;10.52;;;5.80;56.50;;;;;;4984863;28;20089;-83
2021/12/08 09:08:11;;;;;;;20.73;10.98;;;5.80;56.50;;;;;;4983959;28;20066;-84
2021/12/08 09:10:39;;;;;;;18.60;10.32;;;5.70;56.40;;;;;;4985854;28;20401;-83
2021/12/08 09:13:17;;;;;;;21.70;11.10;;;5.80;56.40;;;;;;4985126;28;20039;-82
2021/12/08 09:15:51;;;;;;;21.10;11.02;;;5.80;56.30;;;;;;4985062;28;20030;-84
2021/12/08 09:18:42;;;;;;;21.77;11.68;;;5.80;56.30;;;;;;4986043;28;20528;-84
2021/12/08 09:21:17;;;;;;;21.42;11.85;;;5.80;56.10;;;;;;4986005;28;20527;-86
2021/12/08 09:24:01;;;;;;;48.28;11.30;;;5.70;56.00;;;;;;4967548;28;20391;-87
2021/12/08 09:26:30;;;;;;;18.85;10.18;;;5.80;56.00;;;;;;4987243;28;20412;-84
2021/12/08 09:29:28;;;;;;;18.20;10.02;;;5.80;57.50;;;;;;4993281;28;20046;-88
2021/12/08 09:32:20;;;;;;;19.30;9.70;;;5.90;58.30;;;;;;4988738;28;20042;-85
2021/12/08 09:34:57;;;;;;;19.58;10.10;;;5.80;57.60;;;;;;4994395;28;20045;-85
2021/12/08 09:37:29;;;;;;;19.05;9.82;;;5.80;57.10;;;;;;4984975;28;20034;-86
2021/12/08 09:40:15;;;;;;;18.27;9.05;;;5.70;56.80;;;;;;4991440;28;20489;-87
2021/12/08 09:42:47;;;;;;;18.67;10.60;;;5.80;56.70;;;;;;4988309;28;20061;-85
2021/12/08 09:45:23;;;;;;;19.05;10.32;;;5.70;56.50;;;;;;4991658;28;20038;-84
2021/12/08 09:47:49;;;;;;;18.75;10.40;;;5.70;56.20;;;;;;4994614;28;20056;-86
2021/12/08 09:50:16;;;;;;;20.10;9.88;;;5.80;56.00;;;;;;4975218;28;20038;-84
2021/12/08 09:52:44;;;;;;;18.25;10.23;;;5.80;55.90;;;;;;4993770;28;20205;-84
2021/12/08 09:55:13;;;;;;;20.27;10.20;;;5.70;55.70;;;;;;4990074;28;20033;-84
2021/12/08 09:57:39;;;;;;;19.70;11.40;;;5.70;55.80;;;;;;4988883;28;20035;-82
2021/12/08 10:00:08;;;;;;;18.13;9.50;;;5.70;55.90;;;;;;4983848;28;20070;-81
2021/12/08 10:02:35;;;;;;;18.92;9.85;;;5.60;55.70;;;;;;4984187;28;20041;-84
2021/12/08 10:05:15;;;;;;;19.83;10.85;;;5.70;55.60;;;;;;4983503;28;20413;-84
2021/12/08 10:07:43;;;;;;;17.95;9.48;;;5.70;55.40;;;;;;4983316;28;20038;-85
2021/12/08 10:10:13;;;;;;;17.77;9.57;;;5.70;55.10;;;;;;4984019;28;20077;-84
2021/12/08 10:12:39;;;;;;;19.20;10.27;;;5.70;54.90;;;;;;4983824;28;20116;-86
2021/12/08 10:15:13;;;;;;;17.33;9.90;;;5.70;55.00;;;;;;4986432;28;20084;-86
2021/12/08 10:17:39;;;;;;;19.10;10.63;;;5.70;54.80;;;;;;4987522;28;20064;-87
2021/12/08 10:20:11;;;;;;;20.73;10.90;;;5.60;54.90;;;;;;4983589;28;20034;-88
2021/12/08 10:22:37;;;;;;;20.33;11.00;;;5.60;54.90;;;;;;4988426;28;20090;-86
2021/12/08 10:25:16;;;;;;;20.17;10.65;;;5.60;55.00;;;;;;4985577;28;20034;-86
2021/12/08 10:28:08;;;;;;;22.05;9.70;;;5.50;55.30;;;;;;4966611;28;20042;-81
2021/12/08 10:30:48;;;;;;;19.20;10.20;;;5.50;55.10;;;;;;4984901;28;20101;-87
2021/12/08 10:33:52;;;;;;;19.15;9.57;;;5.50;55.00;;;;;;4981436;28;20030;-87
2021/12/08 10:39:15;;;;;;;19.50;9.77;;;5.30;55.20;;;;;;4983097;28;20026;-86
2021/12/08 10:41:54;;;;;;;19.42;10.18;;;5.40;55.60;;;;;;4983585;28;20038;-88
2021/12/08 10:44:24;;;;;;;16.35;9.35;;;5.40;54.90;;;;;;4983576;28;20038;-88
2021/12/08 10:46:55;;;;;;;19.00;9.57;;;5.40;54.60;;;;;;4982595;28;20900;-88
2021/12/08 10:54:24;;;;;;;18.17;9.68;;;5.30;54.70;;;;;;4983918;28;20539;-87
2021/12/08 10:54:52;;;;;;;19.30;9.75;;;5.30;55.00;;;;;;4963862;28;20041;-87
2021/12/08 10:57:26;;;;;;;18.20;9.73;;;5.30;55.10;;;;;;4983199;28;20031;-86
2021/12/08 11:00:02;;;;;;;20.10;10.35;;;5.30;55.20;;;;;;4984915;28;20117;-88
2021/12/08 11:02:42;;;;;;;20.05;9.45;;;5.30;55.20;;;;;;4982235;28;20173;-85
2021/12/08 11:05:48;;;;;;;17.73;9.38;;;5.20;55.20;;;;;;4983269;28;20038;-87
2021/12/08 11:08:19;;;;;;;19.95;10.30;;;5.30;55.10;;;;;;4980824;28;20448;-86
2021/12/08 11:10:53;;;;;;;18.98;9.82;;;5.30;55.00;;;;;;4983124;28;20038;-87
2021/12/08 11:13:26;;;;;;;17.30;9.40;;;5.30;55.10;;;;;;4985858;28;20042;-86
2021/12/08 11:16:15;;;;;;;16.90;9.52;;;5.20;55.20;;;;;;4981269;28;20062;-89
2021/12/08 11:18:48;;;;;;;18.95;10.43;;;5.20;55.20;;;;;;4981394;28;20026;-88
2021/12/08 11:21:31;;;;;;;19.80;10.60;;;5.20;55.10;;;;;;4981079;28;20062;-87
2021/12/08 11:23:59;;;;;;;20.15;10.43;;;5.20;55.00;;;;;;4983737;28;20409;-88
2021/12/08 11:26:33;;;;;;;20.45;9.82;;;5.30;55.00;;;;;;4982450;28;20405;-86
2021/12/08 11:29:06;;;;;;;18.63;10.23;;;5.20;55.00;;;;;;4965212;28;20030;-86
2021/12/08 11:31:40;;;;;;;20.65;11.02;;;5.30;55.00;;;;;;4983069;28;20054;-86
2021/12/08 11:34:25;;;;;;;19.35;10.52;;;5.20;54.90;;;;;;4980296;28;20041;-84
2021/12/08 11:36:57;;;;;;;18.80;10.18;;;5.20;54.80;;;;;;4981989;28;20070;-86
2021/12/08 11:39:29;;;;;;;17.17;9.38;;;5.20;54.80;;;;;;4983193;28;20026;-83
2021/12/08 11:42:06;;;;;;;19.75;10.55;;;5.20;54.80;;;;;;4982369;28;20045;-84
2021/12/08 11:44:37;;;;;;;20.05;10.63;;;5.20;55.40;;;;;;4981285;28;20076;-88
2021/12/08 11:47:07;;;;;;;19.85;10.50;;;5.20;54.90;;;;;;4965329;28;20525;-84
2021/12/08 11:49:39;;;;;;;18.98;10.10;;;5.10;54.80;;;;;;4966225;28;20045;-90
2021/12/08 11:52:10;;;;;;;20.50;10.45;;;5.20;54.80;;;;;;4982153;28;20038;-88
2021/12/08 11:54:38;;;;;;;19.70;10.50;;;5.20;54.80;;;;;;4980274;28;20042;-87
2021/12/08 11:57:21;;;;;;;18.88;9.85;;;5.20;54.70;;;;;;4979869;28;20119;-84
2021/12/08 11:59:54;;;;;;;18.65;10.00;;;5.20;55.30;;;;;;4980216;28;20026;-83
2021/12/08 12:02:42;;;;;;;18.13;9.35;;;5.10;55.20;;;;;;4982463;28;20030;-85
2021/12/08 12:05:12;;;;;;;17.48;9.73;;;5.10;54.70;;;;;;4964107;28;20050;-87
2021/12/08 12:07:39;;;;;;;19.13;9.68;;;5.10;54.80;;;;;;4983877;28;20104;-87
2021/12/08 12:10:10;;;;;;;19.38;10.10;;;5.00;54.90;;;;;;4981794;28;20035;-85
2021/12/08 12:12:39;;;;;;;19.83;10.27;;;5.00;55.00;;;;;;4982776;28;20034;-87
2021/12/08 12:15:07;;;;;;;19.05;9.73;;;5.00;55.00;;;;;;4981023;28;20035;-86
2021/12/08 12:17:33;;;;;;;18.88;10.77;;;5.00;55.00;;;;;;4985281;28;20405;-89
2021/12/08 12:20:12;;;;;;;16.58;9.02;;;5.00;55.10;;;;;;4983490;28;20031;-81
2021/12/08 12:23:07;;;;;;;17.55;9.27;;;5.00;54.90;;;;;;4983667;28;20041;-82
2021/12/08 12:25:45;;;;;;;19.23;9.80;;;5.00;54.60;;;;;;4986057;28;20038;-82
2021/12/08 12:28:35;;;;;;;17.52;9.40;;;5.00;55.30;;;;;;4985746;28;20126;-82
2021/12/08 12:31:21;;;;;;;16.00;8.98;;;5.00;54.70;;;;;;4988188;28;20144;-81
2021/12/08 12:33:50;;;;;;;19.58;10.73;;;5.00;54.70;;;;;;4985435;28;20060;-81
2021/12/08 12:36:31;;;;;;;17.23;9.23;;;4.90;54.80;;;;;;4983448;28;20401;-83
2021/12/08 12:39:09;;;;;;;16.60;9.27;;;4.90;54.70;;;;;;4984120;28;20026;-83
2021/12/08 12:41:35;;;;;;;19.02;8.77;;;5.00;54.70;;;;;;4985951;28;20042;-82
2021/12/08 12:44:14;;;;;;;17.85;9.63;;;5.00;55.10;;;;;;4985069;28;20042;-82
2021/12/08 12:47:09;;;;;;;22.10;11.00;;;4.90;54.70;;;;;;4985242;28;20081;-80
2021/12/08 12:49:40;;;;;;;17.85;10.32;;;4.70;53.30;;;;;;4982629;28;20035;-79
2021/12/08 12:52:14;;;;;;;20.33;9.95;;;4.40;52.80;;;;;;4985034;28;20126;-79
2021/12/08 12:54:42;;;;;;;19.58;10.52;;;4.20;53.10;;;;;;4985879;28;20121;-80
2021/12/08 12:57:08;;;;;;;16.25;9.52;;;4.00;53.10;;;;;;4985871;28;20030;-80
2021/12/08 12:59:43;;;;;;;23.10;10.85;;;3.80;53.50;;;;;;4985364;28;20030;-79
2021/12/08 13:02:35;;;;;;;18.80;9.77;;;3.70;54.20;;;;;;4985647;28;20045;-81
2021/12/08 13:05:10;;;;;;;19.60;10.25;;;3.60;54.30;;;;;;4967641;28;20042;-80
2021/12/08 13:07:42;;;;;;;20.63;9.98;;;3.50;55.10;;;;;;4985991;28;20038;-80
2021/12/08 13:10:12;;;;;;;16.45;9.48;;;3.40;54.80;;;;;;4982391;28;20109;-84
2021/12/08 13:12:41;;;;;;;19.88;10.23;;;3.40;54.60;;;;;;4968754;28;20664;-81
2021/12/08 13:15:19;;;;;;;18.38;9.38;;;3.40;55.80;;;;;;4984208;28;20136;-80
2021/12/08 13:18:13;;;;;;;17.65;9.43;;;3.50;57.70;;;;;;4983163;28;20041;-81
2021/12/08 13:20:43;;;;;;;17.35;9.60;;;3.70;57.30;;;;;;4982450;28;20070;-79
2021/12/08 13:23:15;;;;;;;16.27;9.13;;;3.90;56.50;;;;;;4984297;28;20041;-81
2021/12/08 13:25:55;;;;;;;19.00;10.20;;;4.00;55.90;;;;;;4984132;28;20085;-82
2021/12/08 13:28:23;;;;;;;16.73;9.10;;;4.10;55.40;;;;;;4983907;28;20030;-81
2021/12/08 13:31:18;;;;;;;15.27;8.55;;;4.30;55.00;;;;;;4983158;28;20046;-83
2021/12/08 13:33:55;;;;;;;17.80;8.87;;;4.40;54.60;;;;;;4991759;28;20034;-85
2021/12/08 13:36:21;;;;;;;14.23;8.25;;;4.40;55.80;;;;;;4991885;28;20030;-84
2021/12/08 13:39:14;;;;;;;15.05;8.15;;;4.50;57.60;;;;;;4994435;28;20046;-85
2021/12/08 13:41:51;;;;;;;15.30;7.50;;;4.50;58.80;;;;;;4993950;28;20519;-84
2021/12/08 13:44:25;;;;;;;19.40;8.43;;;4.60;59.70;;;;;;4993496;28;20073;-84
2021/12/08 13:46:56;;;;;;;16.38;8.13;;;4.60;60.00;;;;;;4992284;28;20030;-85
2021/12/08 13:49:26;;;;;;;15.32;8.20;;;4.70;60.40;;;;;;4960736;28;20387;-86
2021/12/08 13:52:07;;;;;;;16.17;8.80;;;4.70;60.50;;;;;;4992243;28;20461;-85
2021/12/08 13:54:36;;;;;;;14.45;7.65;;;4.80;60.60;;;;;;4988973;28;20034;-86
2021/12/08 13:57:24;;;;;;;16.88;8.77;;;4.80;61.00;;;;;;4982631;28;20085;-85
2021/12/08 13:59:55;;;;;;;15.05;8.40;;;4.90;61.10;;;;;;4983455;28;20034;-84
2021/12/08 14:02:48;;;;;;;16.42;8.07;;;4.90;61.60;;;;;;4985813;28;20126;-85